Middleton, WI (53562)

6:04 AM CST on February 13, 2016 (GMT -0600)
Middleton | | Change Station
CLOSE
Current Station
Airport
Location: Middleton,
Elevation: 928 ft
Nearby Weather Stations
Active Advisory: Wind Chill Advisory

Elev 928 ft 43.12 °N, 89.53 °W | Updated 9 minutes ago

Clear
Clear
-1 °F
Feels Like -13 °F
N
6
Wind Variable Wind from NW

Today
High -- | Low -- °F
--% Chance of Precip.
Yesterday
High -- | Low -- °F
Precip. -- in
Pressure 30.56 in
Visibility 10.0 miles
Clouds Clear
Windchill -13 °F
Dew Point -14 °F
Humidity 55%
Rainfall 0.00 in
Snow Depth Not available.
6:59 AM 5:26 PM
Waxing Crescent, 30% visible
METAR KC29 131155Z AUTO 31005KT 10SM CLR M18/M25 A3056 RMK AO1 T11841254 11160 21185
Pressure 30.56 in
Visibility 10.0 miles
Clouds Clear
Windchill -13 °F
Dew Point -14 °F
Humidity 55%
Rainfall 0.00 in
Snow Depth Not available.
6:59 AM 5:26 PM
Waxing Crescent, 30% visible
METAR KC29 131155Z AUTO 31005KT 10SM CLR M18/M25 A3056 RMK AO1 T11841254 11160 21185

10-Day Weather Forecast

Almanac

Astronomy

Feb. 13, 2016 Rise Set
Actual Time
Civil Twilight
Nautical Twilight
Astronomical Twilight
Moon
Length of Visible Light
Length of Day
Tomorrow will be .
, % of the Moon is Illuminated

Today's Extremes

State Highs State Lows

Community

WunderPhotos

Upload Photos

1,892,541 photos uploaded!

WunderBlog® & News

Nearby

Air Quality

  Air Quality AQ Index Pollutant
Not available.

Snow Depth

Station Depth Elevation

Earthquake Activity

City Distance Mag. Time & Date
Minimum magnitude displayed is 2.5.

Coastal Water Temperatures

Place Temperature

Stations

Nearby Weather Stations

Station Location Temp. Windchill Dew Point Humidity Wind Precip. Elev Updated Type
                   

Watches & Warnings

Wind Chill Advisory
Issued: 3:02 AM CST Feb. 13, 2016 – National Weather Service

... Wind Chill Advisory remains in effect until 9 am CST this
morning...

A Wind Chill Advisory remains in effect until 9 am CST this
morning.

* Bitterly cold wind chills this morning.

* Wind chill values of 15 to 25 degrees below zero are expected.

Precautionary/preparedness actions...

A Wind Chill Advisory means that very cold air and strong winds
will combine to generate low wind chills. This will result in
frost bite and lead to hypothermia if precautions are not taken.
If you must venture outdoors... make sure you wear a hat and
gloves.


Mg